Nearby METAR Reports

 

LEAL - Alicante/El Alte, Spain
Distance from station: SO 52km
Actualización: 21/09/2018 19:00
Despejado
Despejado
 Viento del S
Viento: S 11 km/h
Temperatura: 28°C
Heat Index: 30°C
Rocío: 22°C
Humedad: 70%
Barómetro: 1017 hPa
Resumen: Despejado
Visibility: greater than 10 km
2018/09/21 17:00 LEAL 211700Z 18006KT 130V240 CAVOK 28/22 Q1017 NOSIG
LEVC - Valencia (civ/Mi, Spain
Distance from station: NNO 107km
Actualización: 21/09/2018 19:00
Few Clouds
Few Clouds
 Viento del ENE
Viento: ENE 13 km/h
Temperatura: 30°C
Heat Index: 31°C
Rocío: 18°C
Humedad: 49%
Barómetro: 1016 hPa
Clouds: Few Clouds
Visibility: 10 km
Cloud details: Few Clouds 914 m
2018/09/21 17:00 LEVC 211700Z 06007KT 9999 FEW030 30/18 Q1016 NOSIG
 
LELC - San Javier(Mil/C, Spain
Distance from station: SO 109km
Actualización: 21/09/2018 19:00
Despejado
Despejado
 Viento del SSO
Viento: SSO 17 km/h
Temperatura: 29°C
Heat Index: 31°C
Rocío: 20°C
Humedad: 58%
Barómetro: 1017 hPa
Resumen: Despejado
Visibility: greater than 10 km
2018/09/21 17:00 LELC 211700Z 21009KT 170V240 CAVOK 29/20 Q1017 NOSIG
LERI - Alcantarilla(Sp-, Spain
Distance from station: SO 120km
Actualización: 21/09/2018 19:00
Despejado
Despejado
 Viento del OSO
Viento: OSO 20 km/h
Temperatura: 30°C
Heat Index: 31°C
Rocío: 18°C
Humedad: 49%
Barómetro: 1016 hPa
Resumen: Despejado
Visibility: greater than 10 km
2018/09/21 17:00 LERI 211700Z 24011KT 210V270 CAVOK 30/18 Q1016 NOSIG
 
LEIB - Ibiza/Es Codola, Spain
Distance from station: ENE 131km
Actualización: 21/09/2018 19:00
Few Clouds
Few Clouds
 Viento del SSO
Viento: SSO 15 km/h
Temperatura: 26°C
Rocío: 22°C
Humedad: 79%
Barómetro: 1018 hPa
Clouds: Few Clouds
Visibility: 10 km
Cloud details: Few Clouds 427 m
2018/09/21 17:00 LEIB 211700Z 21008KT 170V240 9999 FEW014 26/22 Q1018 NOSIG
LEAB - Albacete (civ/Mi, Spain
Distance from station: ONO 157km
Actualización: 21/09/2018 19:00
Despejado
Despejado
 Viento del varies
Viento: varies 2 km/h
Temperatura: 31°C
Rocío: 11°C
Humedad: 29%
Barómetro: 1020 hPa
Resumen: Despejado
Visibility: greater than 10 km
2018/09/21 17:00 LEAB 211700Z VRB01KT CAVOK 31/11 Q1020 NOSIG